NCAR-RAP Real-Time Weather Data

Output produced by METARs form (18 December 2017  10:39 UTC)
found at http://weather.rap.ucar.edu/surface/
 
Conditions at: KIND observed 18 December 2017  10:14 UTC
Temperature: 5.6°C (42°F)
Dewpoint: 5.0°C (41°F) [RH = 96%]
Pressure (altimeter): 30.04 inches Hg (1017.4 mb)
Winds: from the SW (220 degrees) at 9 MPH (8 knots; 4.2 m/s)
Visibility: 3 miles (5 km)
Ceiling: 300 feet AGL
Clouds: overcast cloud deck at 300 feet AGL
Present Weather: -DZ BR  (light drizzle, mist)
KIND 181014Z 22008KT 3SM -DZ BR OVC003 06/05 A3004 RMK AO2 P0000 T00560050